TimeCDT,TemperatureF,Dew PointF,Humidity,Sea Level PressureIn,VisibilityMPH,Wind Direction,Wind SpeedMPH,Gust SpeedMPH,PrecipitationIn,Events,Conditions,WindDirDegrees,DateUTC
12:52 AM,50.0,48.9,96,29.94,8.0,Calm,Calm,-,N/A,,Clear,0,2013-09-25 05:52:00
1:52 AM,50.0,48.9,96,29.94,8.0,Calm,Calm,-,N/A,,Clear,0,2013-09-25 06:52:00
2:52 AM,48.0,46.9,96,29.94,6.0,South,3.5,-,N/A,,Clear,190,2013-09-25 07:52:00
3:52 AM,46.9,46.9,100,29.95,6.0,Calm,Calm,-,N/A,,Clear,0,2013-09-25 08:52:00
4:49 AM,46.4,46.4,100,29.95,1.0,Calm,Calm,-,N/A,,Clear,0,2013-09-25 09:49:00
4:52 AM,46.0,46.0,100,29.94,0.2,Calm,Calm,-,N/A,Fog,Fog,0,2013-09-25 09:52:00
5:11 AM,44.6,44.6,100,29.94,1.5,Calm,Calm,-,N/A,,Clear,0,2013-09-25 10:11:00
5:13 AM,44.6,44.6,100,29.94,3.0,Calm,Calm,-,N/A,,Clear,0,2013-09-25 10:13:00
5:33 AM,44.6,44.6,100,29.94,1.5,Calm,Calm,-,N/A,,Clear,0,2013-09-25 10:33:00
5:40 AM,44.6,44.6,100,29.94,0.2,Calm,Calm,-,N/A,Fog,Fog,0,2013-09-25 10:40:00
5:52 AM,45.0,44.1,97,29.94,0.8,Calm,Calm,-,N/A,,Clear,0,2013-09-25 10:52:00
6:09 AM,42.8,42.8,100,29.94,1.2,Calm,Calm,-,N/A,,Partly Cloudy,0,2013-09-25 11:09:00
6:19 AM,42.8,42.8,100,29.94,0.2,Calm,Calm,-,N/A,Fog,Fog,0,2013-09-25 11:19:00
6:32 AM,42.8,42.8,100,29.94,1.2,Calm,Calm,-,N/A,,Partly Cloudy,0,2013-09-25 11:32:00
6:37 AM,44.6,42.8,93,29.94,0.8,Calm,Calm,-,N/A,,Mist,0,2013-09-25 11:37:00
6:47 AM,44.6,44.6,100,29.94,1.0,Calm,Calm,-,N/A,,Clear,0,2013-09-25 11:47:00
6:49 AM,44.6,44.6,100,29.94,2.0,Calm,Calm,-,N/A,,Clear,0,2013-09-25 11:49:00
6:52 AM,44.1,44.1,100,29.94,1.2,Calm,Calm,-,N/A,,Partly Cloudy,0,2013-09-25 11:52:00
6:54 AM,44.6,44.6,100,29.94,0.8,Calm,Calm,-,N/A,,Mist,0,2013-09-25 11:54:00
7:26 AM,42.8,42.8,100,29.95,1.0,Calm,Calm,-,N/A,,Clear,0,2013-09-25 12:26:00
7:29 AM,42.8,42.8,100,29.95,2.0,Calm,Calm,-,N/A,,Clear,0,2013-09-25 12:29:00
7:41 AM,44.6,44.6,100,29.95,3.0,Calm,Calm,-,N/A,,Clear,0,2013-09-25 12:41:00
7:52 AM,45.0,45.0,100,29.97,3.0,Calm,Calm,-,N/A,,Clear,0,2013-09-25 12:52:00
8:08 AM,48.2,48.2,100,29.96,2.5,Calm,Calm,-,N/A,,Clear,0,2013-09-25 13:08:00
8:32 AM,51.8,51.8,100,29.95,3.0,Calm,Calm,-,N/A,,Clear,0,2013-09-25 13:32:00
8:52 AM,54.0,52.0,93,29.97,6.0,SSE,4.6,-,N/A,,Clear,150,2013-09-25 13:52:00
9:52 AM,61.0,52.0,72,29.96,9.0,SSE,10.4,-,N/A,,Clear,150,2013-09-25 14:52:00
10:52 AM,68.0,52.0,56,29.95,10.0,SSE,10.4,-,N/A,,Clear,150,2013-09-25 15:52:00
11:52 AM,71.1,51.1,49,29.94,10.0,SE,15.0,21.9,N/A,,Clear,130,2013-09-25 16:52:00
12:52 PM,73.9,52.0,46,29.92,10.0,SSE,13.8,23.0,N/A,,Clear,160,2013-09-25 17:52:00
1:52 PM,75.0,52.0,44,29.89,10.0,SE,19.6,24.2,N/A,,Clear,140,2013-09-25 18:52:00
2:52 PM,75.9,52.0,43,29.86,10.0,South,15.0,21.9,N/A,,Clear,170,2013-09-25 19:52:00
3:52 PM,77.0,50.0,39,29.85,10.0,South,13.8,20.7,N/A,,Clear,170,2013-09-25 20:52:00
4:52 PM,75.9,50.0,40,29.83,10.0,SSE,15.0,21.9,N/A,,Clear,160,2013-09-25 21:52:00
5:52 PM,75.0,51.1,43,29.82,10.0,SE,15.0,21.9,N/A,,Clear,140,2013-09-25 22:52:00
6:52 PM,71.1,52.0,51,29.82,10.0,SE,6.9,-,N/A,,Clear,140,2013-09-25 23:52:00
7:52 PM,64.9,54.0,68,29.82,10.0,SE,8.1,-,N/A,,Clear,130,2013-09-26 00:52:00
8:52 PM,64.0,54.0,70,29.82,10.0,SE,10.4,-,N/A,,Clear,130,2013-09-26 01:52:00
9:52 PM,63.0,54.0,72,29.83,10.0,SE,10.4,-,N/A,,Clear,130,2013-09-26 02:52:00
10:52 PM,61.0,54.0,78,29.84,10.0,SE,10.4,-,N/A,,Clear,140,2013-09-26 03:52:00
11:52 PM,60.1,54.0,80,29.85,10.0,SE,8.1,-,N/A,,Clear,140,2013-09-26 04:52:00